Time;durP1;ratioP1;P1;durP2;ratioP2;P2;SDS_P1;SDS_P2;PMS_P1;PMS_P2;Temp;Humidity;BMP_temperature;BMP_pressure;BME280_temperature;BME280_humidity;BME280_pressure;Samples;Min_cycle;Max_cycle;Signal;HPM_P1;HPM_P2
2021/04/02 00:00:16;;;;;;;15.80;4.83;;;10.20;99.90;;;;;;4974543;28;20176;-77
2021/04/02 00:02:42;;;;;;;12.13;4.90;;;10.10;99.90;;;;;;4975854;28;20257;-77
2021/04/02 00:05:11;;;;;;;6.70;4.50;;;10.10;99.90;;;;;;4975597;28;20332;-77
2021/04/02 00:07:37;;;;;;;6.27;4.80;;;10.10;99.90;;;;;;4975475;28;20230;-77
2021/04/02 00:10:08;;;;;;;9.77;4.10;;;10.10;99.90;;;;;;4975883;28;20207;-77
2021/04/02 00:12:34;;;;;;;8.60;5.23;;;10.00;99.90;;;;;;4975598;28;20249;-77
2021/04/02 00:14:59;;;;;;;8.63;4.70;;;10.00;99.90;;;;;;4974087;28;20327;-77
2021/04/02 00:17:25;;;;;;;9.77;5.20;;;9.90;99.90;;;;;;4974034;28;20196;-77
2021/04/02 00:19:51;;;;;;;8.60;4.70;;;9.90;99.90;;;;;;4975525;28;20662;-77
2021/04/02 00:22:16;;;;;;;10.60;5.10;;;9.90;99.90;;;;;;4975397;28;20176;-77
2021/04/02 00:24:42;;;;;;;9.37;4.43;;;9.90;99.90;;;;;;4975246;28;20214;-77
2021/04/02 00:27:08;;;;;;;6.07;4.23;;;9.80;99.90;;;;;;4975882;28;20192;-77
2021/04/02 00:29:33;;;;;;;9.30;5.43;;;9.80;99.90;;;;;;4974064;28;20239;-77
2021/04/02 00:31:59;;;;;;;9.10;5.00;;;9.80;99.90;;;;;;4973983;28;20210;-77
2021/04/02 00:34:24;;;;;;;9.93;5.30;;;9.80;99.90;;;;;;4973880;28;20644;-77
2021/04/02 00:36:50;;;;;;;9.87;5.17;;;9.70;99.90;;;;;;4975229;28;20210;-77
2021/04/02 00:39:16;;;;;;;7.60;5.70;;;9.70;99.90;;;;;;4975114;28;20209;-77
2021/04/02 00:41:41;;;;;;;9.57;5.20;;;9.70;99.90;;;;;;4975092;28;20172;-77
2021/04/02 00:44:07;;;;;;;9.97;5.53;;;9.60;99.90;;;;;;4974934;28;20255;-77
2021/04/02 00:46:33;;;;;;;15.03;6.40;;;9.60;99.90;;;;;;4973782;28;20200;-77
2021/04/02 00:48:58;;;;;;;11.57;5.90;;;9.50;99.90;;;;;;4975242;28;20224;-77
2021/04/02 00:51:27;;;;;;;11.47;5.73;;;9.50;99.90;;;;;;4973714;28;20188;-77
2021/04/02 00:53:53;;;;;;;11.53;5.87;;;9.50;99.90;;;;;;4973710;28;20269;-77
2021/04/02 00:56:19;;;;;;;8.60;5.53;;;9.50;99.90;;;;;;4973292;28;20225;-77
2021/04/02 00:58:46;;;;;;;9.93;6.10;;;9.50;99.90;;;;;;4974830;28;20172;-77
2021/04/02 01:01:13;;;;;;;10.20;6.00;;;9.40;99.90;;;;;;4974838;28;20506;-77
2021/04/02 01:03:40;;;;;;;13.00;5.97;;;9.40;99.90;;;;;;4974807;28;20178;-77
2021/04/02 01:06:09;;;;;;;15.73;8.40;;;9.30;99.90;;;;;;4973240;28;20225;-77
2021/04/02 01:08:36;;;;;;;17.67;9.07;;;9.20;99.90;;;;;;4976757;28;20553;-77
2021/04/02 01:11:06;;;;;;;16.10;9.23;;;9.30;99.90;;;;;;4978664;28;20179;-77
2021/04/02 01:13:37;;;;;;;17.20;9.60;;;9.40;99.90;;;;;;4978983;28;20179;-77
2021/04/02 01:16:02;;;;;;;19.40;9.20;;;9.40;99.90;;;;;;4978420;28;20245;-77
2021/04/02 01:18:33;;;;;;;18.70;9.83;;;9.50;99.90;;;;;;4978602;28;20225;-77
2021/04/02 01:21:23;;;;;;;16.60;9.40;;;9.50;99.90;;;;;;4978617;28;20242;-77
2021/04/02 01:24:00;;;;;;;13.70;7.50;;;9.50;99.90;;;;;;4978662;28;20167;-77
2021/04/02 01:26:57;;;;;;;14.63;7.30;;;9.30;99.90;;;;;;4977469;28;20233;-77
2021/04/02 01:29:28;;;;;;;13.83;7.90;;;9.20;99.90;;;;;;4978470;28;20586;-77
2021/04/02 01:31:58;;;;;;;9.47;7.47;;;9.10;99.90;;;;;;4977133;28;20183;-77
2021/04/02 01:34:33;;;;;;;10.97;6.90;;;9.00;99.90;;;;;;4978244;28;20254;-77
2021/04/02 01:37:06;;;;;;;13.03;6.50;;;8.90;99.90;;;;;;4977048;28;20211;-77
2021/04/02 01:39:42;;;;;;;12.57;7.67;;;8.90;99.90;;;;;;4978323;28;20170;-77
2021/04/02 01:42:20;;;;;;;14.33;7.37;;;8.80;99.90;;;;;;4978668;28;20213;-77
2021/04/02 01:44:48;;;;;;;18.07;9.03;;;8.70;99.90;;;;;;4976801;28;20632;-77
2021/04/02 01:47:15;;;;;;;16.33;9.83;;;8.70;99.90;;;;;;4978071;28;20724;-77
2021/04/02 01:49:42;;;;;;;19.00;10.53;;;8.60;99.90;;;;;;4978090;28;20228;-77
2021/04/02 01:52:09;;;;;;;22.80;10.73;;;8.60;99.90;;;;;;4978027;28;20218;-77
2021/04/02 01:54:36;;;;;;;17.53;10.90;;;8.60;99.90;;;;;;4977797;28;20200;-77
2021/04/02 01:57:04;;;;;;;25.57;12.27;;;8.70;99.90;;;;;;4977787;28;20215;-77
2021/04/02 01:59:30;;;;;;;24.03;12.03;;;8.70;99.90;;;;;;4977939;28;20174;-77
2021/04/02 02:01:57;;;;;;;18.83;11.23;;;8.60;99.90;;;;;;4977932;28;20171;-77
2021/04/02 02:04:24;;;;;;;18.57;10.93;;;8.60;99.90;;;;;;4976431;28;20563;-77
2021/04/02 02:06:52;;;;;;;20.27;9.50;;;8.60;99.90;;;;;;4976441;28;20329;-77
2021/04/02 02:09:23;;;;;;;14.90;9.17;;;8.60;99.90;;;;;;4976543;28;20770;-77
2021/04/02 02:11:53;;;;;;;16.60;8.90;;;8.50;99.90;;;;;;4977991;28;20157;-77
2021/04/02 02:14:19;;;;;;;17.03;8.83;;;8.40;99.90;;;;;;4977758;28;20191;-77
2021/04/02 02:16:51;;;;;;;14.43;9.20;;;8.30;99.90;;;;;;4977445;28;20212;-77
2021/04/02 02:19:23;;;;;;;17.30;9.53;;;8.30;99.90;;;;;;4977588;28;20215;-77
2021/04/02 02:21:51;;;;;;;16.17;9.03;;;8.20;99.90;;;;;;4977380;28;20182;-77
2021/04/02 02:24:18;;;;;;;15.80;9.20;;;8.10;99.90;;;;;;4978162;28;20202;-77
2021/04/02 02:26:44;;;;;;;13.53;9.23;;;8.10;99.90;;;;;;4979771;28;20198;-77
2021/04/02 02:29:11;;;;;;;16.30;9.17;;;8.00;99.90;;;;;;4981937;28;20182;-77
2021/04/02 02:31:38;;;;;;;15.57;9.67;;;7.90;99.90;;;;;;4979352;28;20188;-77
2021/04/02 02:34:06;;;;;;;14.73;9.30;;;7.90;99.90;;;;;;4975864;28;20265;-77
2021/04/02 02:36:32;;;;;;;17.00;9.30;;;7.80;99.90;;;;;;4975947;28;20225;-77
2021/04/02 02:39:00;;;;;;;17.97;9.37;;;7.80;99.90;;;;;;4977146;28;20180;-77
2021/04/02 02:41:29;;;;;;;17.13;9.37;;;7.80;99.90;;;;;;4975946;28;20189;-77
2021/04/02 02:43:56;;;;;;;17.10;9.93;;;7.70;99.90;;;;;;4977058;28;20601;-77
2021/04/02 02:46:26;;;;;;;19.77;9.80;;;7.70;99.90;;;;;;4975627;28;20241;-77
2021/04/02 02:48:55;;;;;;;18.27;9.27;;;7.60;99.90;;;;;;4977055;28;20177;-77
2021/04/02 02:51:22;;;;;;;19.10;9.17;;;7.60;99.90;;;;;;4977046;28;20252;-77
2021/04/02 02:53:48;;;;;;;21.73;9.60;;;7.60;99.90;;;;;;4975691;28;20602;-77
2021/04/02 02:56:16;;;;;;;16.63;9.17;;;7.60;99.90;;;;;;4976389;28;20213;-77
2021/04/02 02:58:44;;;;;;;18.57;8.80;;;7.50;99.90;;;;;;4975546;28;20174;-77
2021/04/02 03:01:13;;;;;;;19.47;9.53;;;7.50;99.90;;;;;;4976799;28;20178;-77
2021/04/02 03:03:40;;;;;;;16.87;10.13;;;7.40;99.90;;;;;;4975451;28;20177;-77
2021/04/02 03:06:07;;;;;;;16.17;9.53;;;7.40;99.90;;;;;;4975217;28;20248;-77
2021/04/02 03:08:42;;;;;;;16.63;9.23;;;7.30;99.90;;;;;;4975330;28;20188;-77
2021/04/02 03:11:10;;;;;;;16.60;9.37;;;7.30;99.90;;;;;;4976557;28;20165;-77
2021/04/02 03:13:39;;;;;;;20.87;9.90;;;7.30;99.90;;;;;;4976504;28;20197;-77
2021/04/02 03:16:06;;;;;;;20.03;9.97;;;7.30;99.90;;;;;;4974996;28;20247;-77
2021/04/02 03:18:33;;;;;;;18.47;9.63;;;7.20;99.90;;;;;;4975284;28;20648;-77
2021/04/02 03:21:01;;;;;;;23.63;10.50;;;7.20;99.90;;;;;;4976376;28;20170;-77
2021/04/02 03:23:28;;;;;;;19.40;9.87;;;7.20;99.90;;;;;;4975067;28;20182;-77
2021/04/02 03:25:55;;;;;;;21.37;10.57;;;7.10;99.90;;;;;;4976007;28;20683;-77
2021/04/02 03:28:21;;;;;;;17.30;10.73;;;7.10;99.90;;;;;;4976230;28;20181;-77
2021/04/02 03:30:47;;;;;;;20.67;10.30;;;7.10;99.90;;;;;;4975541;28;20228;-77
2021/04/02 03:33:19;;;;;;;21.33;11.13;;;7.00;99.90;;;;;;4975027;28;20273;-77
2021/04/02 03:35:46;;;;;;;19.93;12.43;;;7.00;99.90;;;;;;4975854;28;20213;-77
2021/04/02 03:38:15;;;;;;;18.77;11.00;;;7.00;99.90;;;;;;4974791;28;20323;-77
2021/04/02 03:40:43;;;;;;;26.57;12.30;;;7.00;99.90;;;;;;4974763;28;20208;-77
2021/04/02 03:43:10;;;;;;;20.27;10.10;;;6.90;99.90;;;;;;4975931;28;20639;-77
2021/04/02 03:45:38;;;;;;;15.73;9.23;;;6.80;99.90;;;;;;4975842;28;20193;-77
2021/04/02 03:48:06;;;;;;;17.87;8.70;;;6.70;99.90;;;;;;4975895;28;20668;-77
2021/04/02 03:50:35;;;;;;;15.00;9.07;;;6.70;99.90;;;;;;4975842;28;20260;-77
2021/04/02 03:53:07;;;;;;;13.97;8.10;;;6.50;99.90;;;;;;4975781;28;20261;-77
2021/04/02 03:55:35;;;;;;;15.90;9.27;;;6.50;99.90;;;;;;4975484;28;20206;-77
2021/04/02 03:58:02;;;;;;;13.77;8.33;;;6.50;99.90;;;;;;4974350;28;20216;-77
2021/04/02 04:00:36;;;;;;;14.53;8.70;;;6.50;99.90;;;;;;4976235;28;20173;-77
2021/04/02 04:03:05;;;;;;;19.60;8.20;;;6.50;99.90;;;;;;4975591;28;20165;-77
2021/04/02 04:05:32;;;;;;;13.83;8.93;;;6.40;99.90;;;;;;4975341;28;20182;-77
2021/04/02 04:07:59;;;;;;;16.07;8.80;;;6.30;99.90;;;;;;4976603;28;20263;-77
2021/04/02 04:10:26;;;;;;;18.40;8.27;;;6.30;99.90;;;;;;4976354;28;20180;-78
2021/04/02 04:12:57;;;;;;;12.77;8.67;;;6.30;99.90;;;;;;4976515;28;20181;-77
2021/04/02 04:15:25;;;;;;;15.50;8.77;;;6.30;99.90;;;;;;4974629;28;20232;-77
2021/04/02 04:17:52;;;;;;;13.87;8.13;;;6.30;99.90;;;;;;4975935;28;20173;-78
2021/04/02 04:20:19;;;;;;;12.50;8.40;;;6.30;99.90;;;;;;4975990;28;20205;-77
2021/04/02 04:22:47;;;;;;;12.33;8.17;;;6.30;99.90;;;;;;4954433;28;20170;-77
2021/04/02 04:25:14;;;;;;;14.53;9.27;;;6.40;99.90;;;;;;4975599;28;20534;-77
2021/04/02 04:27:43;;;;;;;15.57;8.50;;;6.40;99.90;;;;;;4973865;28;20294;-77
2021/04/02 04:30:13;;;;;;;15.97;9.33;;;6.30;99.90;;;;;;4973943;28;20211;-77
2021/04/02 04:32:40;;;;;;;15.10;8.30;;;6.40;99.90;;;;;;4973873;28;20176;-77
2021/04/02 04:35:17;;;;;;;15.00;9.10;;;6.40;99.90;;;;;;4974908;28;20207;-77
2021/04/02 04:37:45;;;;;;;12.30;8.37;;;6.40;99.90;;;;;;4973818;28;20197;-78
2021/04/02 04:40:14;;;;;;;14.20;9.03;;;6.40;99.90;;;;;;4975193;28;20243;-78
2021/04/02 04:42:43;;;;;;;16.07;10.17;;;6.40;99.90;;;;;;4973871;28;20272;-77
2021/04/02 04:45:11;;;;;;;14.43;8.40;;;6.40;99.90;;;;;;4975223;28;20178;-77
2021/04/02 04:47:37;;;;;;;13.57;8.20;;;6.40;99.90;;;;;;4973777;28;20229;-77
2021/04/02 04:50:05;;;;;;;12.47;7.53;;;6.40;99.90;;;;;;4974906;28;20702;-77
2021/04/02 04:52:35;;;;;;;11.90;7.43;;;6.30;99.90;;;;;;4974786;28;20181;-77
2021/04/02 04:55:03;;;;;;;11.50;7.50;;;6.30;99.90;;;;;;4974697;28;20578;-77
2021/04/02 04:57:32;;;;;;;11.80;7.37;;;6.30;99.90;;;;;;4974627;28;20207;-77
2021/04/02 04:59:59;;;;;;;11.87;7.87;;;6.20;99.90;;;;;;4974770;28;20204;-77
2021/04/02 05:02:25;;;;;;;13.43;7.93;;;6.30;99.90;;;;;;4973621;28;20234;-77
2021/04/02 05:04:52;;;;;;;11.87;8.50;;;6.30;99.90;;;;;;4973399;28;20172;-77
2021/04/02 05:07:20;;;;;;;14.40;7.60;;;6.20;99.90;;;;;;4973503;28;20196;-77
2021/04/02 05:09:47;;;;;;;13.20;8.00;;;6.10;99.90;;;;;;4973600;28;20180;-77
2021/04/02 05:12:15;;;;;;;11.17;7.23;;;6.10;99.90;;;;;;4974959;28;20189;-77
2021/04/02 05:14:43;;;;;;;16.67;10.77;;;6.10;99.90;;;;;;4974487;28;20169;-77
2021/04/02 05:17:10;;;;;;;18.73;11.57;;;6.10;99.90;;;;;;4973352;28;20260;-77
2021/04/02 05:19:39;;;;;;;17.03;9.93;;;6.00;99.90;;;;;;4974664;28;20177;-77
2021/04/02 05:22:06;;;;;;;43.50;25.07;;;6.00;99.90;;;;;;4974560;28;20204;-77
2021/04/02 05:24:32;;;;;;;44.17;22.37;;;6.00;99.90;;;;;;4974540;28;20565;-77
2021/04/02 05:26:57;;;;;;;38.43;20.77;;;6.00;99.90;;;;;;4974612;28;20601;-77
2021/04/02 05:29:23;;;;;;;54.17;27.00;;;6.00;99.90;;;;;;4974500;28;20184;-77
2021/04/02 05:31:50;;;;;;;38.17;22.17;;;6.00;99.90;;;;;;4973267;28;20236;-77
2021/04/02 05:34:15;;;;;;;62.43;28.93;;;6.10;99.90;;;;;;4973143;28;20185;-77
2021/04/02 05:36:41;;;;;;;71.93;33.13;;;6.10;99.90;;;;;;4973064;28;21064;-77
2021/04/02 05:39:07;;;;;;;43.70;21.60;;;6.10;99.90;;;;;;4974889;28;20565;-77
2021/04/02 05:41:56;;;;;;;26.97;14.90;;;6.00;99.90;;;;;;4977742;28;20177;-77
2021/04/02 05:44:31;;;;;;;32.07;14.67;;;6.10;99.90;;;;;;4974400;28;20203;-77
2021/04/02 05:47:02;;;;;;;37.33;19.57;;;6.10;99.90;;;;;;4974054;28;20236;-77
2021/04/02 05:49:28;;;;;;;73.40;37.47;;;6.20;99.90;;;;;;4975285;28;20534;-77
2021/04/02 05:51:56;;;;;;;44.60;24.60;;;6.30;99.90;;;;;;4974954;28;20211;-77
2021/04/02 05:54:45;;;;;;;54.00;28.90;;;6.50;99.90;;;;;;4976947;28;20185;-77
2021/04/02 05:57:12;;;;;;;49.00;24.20;;;6.60;99.90;;;;;;4978111;28;20613;-77
2021/04/02 05:59:41;;;;;;;37.27;20.60;;;6.70;99.90;;;;;;4977934;28;20181;-77
2021/04/02 06:02:08;;;;;;;40.40;20.73;;;6.70;99.90;;;;;;4978025;28;20178;-78
2021/04/02 06:04:35;;;;;;;34.60;18.57;;;6.80;99.90;;;;;;4977704;28;20177;-77
2021/04/02 06:07:01;;;;;;;35.43;17.60;;;6.90;99.90;;;;;;4977756;28;20209;-77
2021/04/02 06:09:27;;;;;;;31.40;17.10;;;7.00;99.90;;;;;;4976422;28;20318;-77
2021/04/02 06:11:53;;;;;;;34.40;19.20;;;7.10;99.90;;;;;;4977679;28;20679;-78
2021/04/02 06:14:19;;;;;;;44.50;22.07;;;7.20;99.90;;;;;;4976219;28;20185;-77
2021/04/02 06:16:52;;;;;;;47.67;22.93;;;7.40;99.90;;;;;;4977506;28;20224;-77
2021/04/02 06:19:18;;;;;;;40.53;22.80;;;7.50;99.90;;;;;;4977644;28;20711;-77
2021/04/02 06:21:52;;;;;;;41.63;23.13;;;7.60;99.90;;;;;;4976463;28;20281;-77
2021/04/02 06:24:41;;;;;;;46.17;23.73;;;7.80;99.90;;;;;;4977401;28;20161;-77
2021/04/02 06:27:09;;;;;;;45.37;23.87;;;7.90;99.90;;;;;;4977507;28;20667;-77
2021/04/02 06:29:40;;;;;;;40.93;22.23;;;8.00;99.90;;;;;;4977334;28;20204;-77
2021/04/02 06:32:13;;;;;;;43.87;23.00;;;8.20;99.90;;;;;;4977300;28;20737;-77
2021/04/02 06:34:49;;;;;;;41.77;23.27;;;8.20;99.90;;;;;;4977189;28;20167;-77
2021/04/02 06:37:16;;;;;;;35.73;22.23;;;8.30;99.90;;;;;;4978574;28;20209;-77
2021/04/02 06:39:50;;;;;;;44.93;23.23;;;8.40;99.90;;;;;;4980196;28;20177;-77
2021/04/02 06:42:28;;;;;;;36.77;21.60;;;8.40;99.90;;;;;;4980153;28;20268;-77
2021/04/02 06:45:02;;;;;;;38.90;21.23;;;8.50;99.90;;;;;;4980156;28;20576;-78
2021/04/02 06:47:41;;;;;;;41.37;22.40;;;8.50;99.90;;;;;;4980073;28;20191;-78
2021/04/02 06:50:33;;;;;;;39.57;22.83;;;8.60;99.90;;;;;;4981352;28;20210;-77
2021/04/02 06:53:01;;;;;;;35.20;20.73;;;8.70;99.90;;;;;;4977997;28;20186;-77
2021/04/02 06:55:28;;;;;;;37.67;22.53;;;8.70;99.90;;;;;;4980110;28;20627;-78
2021/04/02 06:57:55;;;;;;;35.47;21.80;;;8.80;99.90;;;;;;4980253;28;20622;-78
2021/04/02 07:00:22;;;;;;;36.23;21.40;;;8.90;99.90;;;;;;4979837;28;20171;-78
2021/04/02 07:02:50;;;;;;;37.83;21.60;;;9.00;99.90;;;;;;4979203;28;20179;-78
2021/04/02 07:05:21;;;;;;;40.17;22.47;;;9.20;99.90;;;;;;4976804;28;20192;-78
2021/04/02 07:08:03;;;;;;;37.67;21.27;;;9.30;99.90;;;;;;4979732;28;20161;-78
2021/04/02 07:10:30;;;;;;;37.93;22.37;;;9.50;99.90;;;;;;4980477;28;20184;-78
2021/04/02 07:12:58;;;;;;;35.30;20.73;;;9.60;99.90;;;;;;4983079;28;20629;-78
2021/04/02 07:15:25;;;;;;;37.97;21.50;;;9.80;99.90;;;;;;4982784;28;20200;-78
2021/04/02 07:17:52;;;;;;;37.07;21.43;;;9.90;99.90;;;;;;4983604;28;20192;-78
2021/04/02 07:20:18;;;;;;;38.43;19.90;;;10.20;99.90;;;;;;4982975;28;20268;-78
2021/04/02 07:22:44;;;;;;;34.83;20.83;;;10.60;99.90;;;;;;4984266;28;20176;-79
2021/04/02 07:25:11;;;;;;;34.47;20.97;;;11.10;99.90;;;;;;4984178;28;20240;-81
2021/04/02 07:27:37;;;;;;;30.93;19.90;;;11.20;99.90;;;;;;4983976;28;20200;-80
2021/04/02 07:30:06;;;;;;;33.10;19.13;;;11.70;99.90;;;;;;4986884;28;20219;-79
2021/04/02 07:32:32;;;;;;;33.67;19.67;;;11.90;99.90;;;;;;4986063;28;20548;-79
2021/04/02 07:34:59;;;;;;;33.70;18.80;;;12.30;99.90;;;;;;4986120;28;20208;-78
2021/04/02 07:37:25;;;;;;;29.10;19.17;;;12.40;99.90;;;;;;4986667;28;20259;-79
2021/04/02 07:39:55;;;;;;;31.43;18.67;;;12.40;99.90;;;;;;4982744;28;20247;-79
2021/04/02 07:42:22;;;;;;;33.07;19.50;;;12.50;99.90;;;;;;4980770;28;20184;-79
2021/04/02 07:44:54;;;;;;;29.43;18.93;;;12.50;99.90;;;;;;4979723;28;20172;-78
2021/04/02 07:47:21;;;;;;;27.03;18.27;;;12.60;99.90;;;;;;4981045;28;20279;-78
2021/04/02 07:49:51;;;;;;;28.40;18.67;;;12.80;99.90;;;;;;4980825;28;20184;-78
2021/04/02 07:52:17;;;;;;;29.60;19.47;;;13.10;99.90;;;;;;4981757;28;20179;-77
2021/04/02 07:54:45;;;;;;;37.37;20.30;;;13.50;99.90;;;;;;4975414;28;20204;-77
2021/04/02 07:57:11;;;;;;;38.20;23.37;;;13.90;99.90;;;;;;4975712;28;20212;-77
2021/04/02 07:59:37;;;;;;;35.97;22.97;;;14.20;99.90;;;;;;4977977;28;20597;-78
2021/04/02 08:02:05;;;;;;;32.37;19.83;;;14.40;99.90;;;;;;4981602;28;20650;-79
2021/04/02 08:04:39;;;;;;;33.13;20.67;;;14.40;99.90;;;;;;4984352;28;20177;-78
2021/04/02 08:07:14;;;;;;;38.83;25.53;;;14.80;99.90;;;;;;4977763;28;20207;-78
2021/04/02 08:09:42;;;;;;;31.80;20.37;;;15.10;99.90;;;;;;4977101;28;20162;-76
2021/04/02 08:12:10;;;;;;;38.43;24.10;;;15.30;99.90;;;;;;4974471;28;20183;-76
2021/04/02 08:14:36;;;;;;;32.40;21.17;;;15.50;99.90;;;;;;4975614;28;20225;-76
2021/04/02 08:17:08;;;;;;;51.50;34.40;;;15.60;99.90;;;;;;4976099;28;20215;-77
2021/04/02 08:19:41;;;;;;;38.50;21.37;;;15.20;99.90;;;;;;4975093;28;20528;-77
2021/04/02 08:22:12;;;;;;;198.97;74.47;;;14.80;99.90;;;;;;4976204;28;20659;-78
2021/04/02 08:24:40;;;;;;;62.03;28.73;;;14.30;99.90;;;;;;4979333;28;20620;-78
2021/04/02 08:27:07;;;;;;;38.53;22.63;;;14.20;99.90;;;;;;4978455;28;20226;-78
2021/04/02 08:29:34;;;;;;;608.63;175.30;;;14.80;99.90;;;;;;4976336;28;20257;-77
2021/04/02 08:32:03;;;;;;;79.03;33.47;;;14.90;99.90;;;;;;4974252;28;20187;-77
2021/04/02 08:34:31;;;;;;;50.33;26.57;;;15.00;99.90;;;;;;4975624;28;20676;-77
2021/04/02 08:37:00;;;;;;;214.33;75.83;;;15.40;99.90;;;;;;4975470;28;20204;-77
2021/04/02 08:39:27;;;;;;;32.03;21.70;;;15.90;99.90;;;;;;4975656;28;20227;-77
2021/04/02 08:42:01;;;;;;;32.10;22.13;;;15.50;99.90;;;;;;4975155;28;20203;-76
2021/04/02 08:44:31;;;;;;;39.20;22.20;;;15.30;99.90;;;;;;4975455;28;20156;-76
2021/04/02 08:47:07;;;;;;;460.70;180.90;;;15.40;99.90;;;;;;4975065;28;20200;-75
2021/04/02 08:49:52;;;;;;;38.13;24.50;;;15.20;99.90;;;;;;4986111;28;20251;-77
2021/04/02 08:52:28;;;;;;;95.00;45.50;;;15.10;99.90;;;;;;4975562;28;20188;-77
2021/04/02 08:55:00;;;;;;;32.17;22.93;;;15.30;99.90;;;;;;4975270;28;20164;-77
2021/04/02 08:57:28;;;;;;;560.13;251.27;;;15.50;99.90;;;;;;4973914;28;20295;-77
2021/04/02 08:59:55;;;;;;;41.43;27.53;;;15.80;99.90;;;;;;4975191;28;20227;-77
2021/04/02 09:02:25;;;;;;;111.07;48.33;;;15.90;99.90;;;;;;4976420;28;20173;-77
2021/04/02 09:04:51;;;;;;;42.60;26.47;;;15.60;99.90;;;;;;4980395;28;20168;-78
2021/04/02 09:07:18;;;;;;;523.93;210.07;;;15.40;99.90;;;;;;4978993;28;20223;-77
2021/04/02 09:09:47;;;;;;;280.27;128.60;;;15.10;99.90;;;;;;4974070;28;20642;-77
2021/04/02 09:12:18;;;;;;;273.83;98.77;;;14.80;99.90;;;;;;4974725;28;20180;-76
2021/04/02 09:14:44;;;;;;;279.30;107.07;;;14.60;99.90;;;;;;4974516;28;20265;-76
2021/04/02 09:17:15;;;;;;;63.13;33.90;;;14.30;99.90;;;;;;4977491;28;20216;-77
2021/04/02 09:19:42;;;;;;;246.03;101.30;;;14.70;99.90;;;;;;4979516;28;20558;-77
2021/04/02 09:22:08;;;;;;;719.77;310.70;;;15.10;99.90;;;;;;4979805;28;20172;-77
2021/04/02 09:24:45;;;;;;;674.83;290.83;;;14.60;99.90;;;;;;4979404;28;20222;-78
2021/04/02 09:27:28;;;;;;;450.10;188.63;;;14.30;99.90;;;;;;4977299;28;20211;-77
2021/04/02 09:29:57;;;;;;;36.00;25.27;;;14.10;99.90;;;;;;4980697;28;20169;-78
2021/04/02 09:32:27;;;;;;;367.33;163.60;;;13.90;99.90;;;;;;4980751;28;20185;-78
2021/04/02 09:34:52;;;;;;;317.90;152.23;;;14.30;99.90;;;;;;4978710;28;20165;-77
2021/04/02 09:37:18;;;;;;;316.17;141.67;;;14.60;99.90;;;;;;4980760;28;20290;-78
2021/04/02 09:39:45;;;;;;;39.30;26.43;;;14.80;99.90;;;;;;4979748;28;20183;-78
2021/04/02 09:42:15;;;;;;;58.13;31.40;;;15.00;99.90;;;;;;4978889;28;20668;-77
2021/04/02 09:44:45;;;;;;;84.67;43.53;;;15.10;99.90;;;;;;4977846;28;20194;-77
2021/04/02 09:47:14;;;;;;;702.13;307.13;;;15.20;99.90;;;;;;4985445;28;20200;-79
2021/04/02 09:49:42;;;;;;;759.67;355.77;;;15.00;99.90;;;;;;4984466;28;20175;-80
2021/04/02 09:52:09;;;;;;;486.67;221.50;;;14.40;99.90;;;;;;4985735;28;20284;-81
2021/04/02 09:54:36;;;;;;;245.00;114.40;;;14.00;99.90;;;;;;4980791;28;20190;-78
2021/04/02 09:57:04;;;;;;;48.83;30.20;;;14.00;99.90;;;;;;4980877;28;20215;-78
2021/04/02 09:59:31;;;;;;;71.40;39.70;;;14.10;99.90;;;;;;4979177;28;20183;-79
2021/04/02 10:01:56;;;;;;;337.73;142.67;;;14.10;99.90;;;;;;4982024;28;20189;-79
2021/04/02 10:04:22;;;;;;;219.60;99.93;;;13.90;99.90;;;;;;4983647;28;20177;-78
2021/04/02 10:06:49;;;;;;;124.53;62.40;;;13.60;99.90;;;;;;4979080;28;20200;-77
2021/04/02 10:09:15;;;;;;;118.97;69.70;;;13.30;99.90;;;;;;4982830;28;20190;-80
2021/04/02 10:11:44;;;;;;;45.40;31.77;;;13.00;99.90;;;;;;4983030;28;20182;-78
2021/04/02 10:14:11;;;;;;;45.90;29.33;;;13.40;99.90;;;;;;4979977;28;20185;-78
2021/04/02 10:16:36;;;;;;;33.47;23.60;;;13.90;99.90;;;;;;4981051;28;20215;-78
2021/04/02 10:19:03;;;;;;;46.47;29.43;;;14.10;99.90;;;;;;4981559;28;20246;-80
2021/04/02 10:21:31;;;;;;;36.67;23.83;;;13.90;99.90;;;;;;4982456;28;20182;-78
2021/04/02 10:23:57;;;;;;;34.47;25.50;;;13.50;99.90;;;;;;4983429;28;20298;-78
2021/04/02 10:26:22;;;;;;;38.40;26.87;;;13.30;99.90;;;;;;4983172;28;20217;-78
2021/04/02 10:28:48;;;;;;;36.13;26.50;;;13.20;99.90;;;;;;4979756;28;20187;-78
2021/04/02 10:31:16;;;;;;;36.23;26.00;;;12.90;99.90;;;;;;4980942;28;20279;-78
2021/04/02 10:33:42;;;;;;;37.27;24.27;;;12.70;99.90;;;;;;4981545;28;20264;-78
2021/04/02 10:36:08;;;;;;;43.77;26.20;;;12.60;99.90;;;;;;4980006;28;20236;-78
2021/04/02 10:38:35;;;;;;;41.07;24.23;;;13.00;99.90;;;;;;4980177;28;20651;-78
2021/04/02 10:41:00;;;;;;;39.43;22.87;;;13.30;99.90;;;;;;4979756;28;20192;-78
2021/04/02 10:43:26;;;;;;;34.97;23.40;;;13.30;99.90;;;;;;4981648;28;20200;-78
2021/04/02 10:45:52;;;;;;;32.53;21.67;;;12.90;99.90;;;;;;4980338;28;20196;-78
2021/04/02 10:48:19;;;;;;;32.83;21.63;;;13.10;99.90;;;;;;4979885;28;20508;-78
2021/04/02 10:50:47;;;;;;;31.97;22.07;;;13.40;99.90;;;;;;4983560;28;20185;-78
2021/04/02 10:53:13;;;;;;;35.80;24.17;;;13.30;99.90;;;;;;4981116;28;20192;-79
2021/04/02 10:55:40;;;;;;;34.40;22.03;;;13.10;99.90;;;;;;4981215;28;20207;-79
2021/04/02 10:58:06;;;;;;;34.67;23.73;;;13.50;99.90;;;;;;4981153;28;20658;-79
2021/04/02 11:00:36;;;;;;;34.80;22.20;;;13.50;99.90;;;;;;4980768;28;20196;-79
2021/04/02 11:03:03;;;;;;;32.67;22.20;;;13.40;99.90;;;;;;4979116;28;20184;-77
2021/04/02 11:05:29;;;;;;;33.43;22.83;;;12.70;99.90;;;;;;4979856;28;20177;-79
2021/04/02 11:07:55;;;;;;;33.93;22.03;;;12.60;99.90;;;;;;4978128;28;20195;-78
2021/04/02 11:10:21;;;;;;;34.53;22.80;;;12.30;99.90;;;;;;4976954;28;20176;-78
2021/04/02 11:12:47;;;;;;;33.27;22.77;;;12.00;99.90;;;;;;4977517;28;20168;-78
2021/04/02 11:15:13;;;;;;;38.33;22.67;;;12.20;99.90;;;;;;4978804;28;20183;-77
2021/04/02 11:17:40;;;;;;;35.57;22.67;;;12.30;99.90;;;;;;4977333;28;20289;-78
2021/04/02 11:20:08;;;;;;;35.57;23.03;;;12.30;99.90;;;;;;4977020;28;20172;-78
2021/04/02 11:22:36;;;;;;;35.80;23.70;;;12.30;99.90;;;;;;4977365;28;20602;-78
2021/04/02 11:25:01;;;;;;;32.47;22.63;;;12.20;99.90;;;;;;4976776;28;20183;-77
2021/04/02 11:27:27;;;;;;;34.80;22.13;;;12.20;99.90;;;;;;4978197;28;20192;-78
2021/04/02 11:29:55;;;;;;;36.33;23.27;;;12.20;99.90;;;;;;4977521;28;20203;-78
2021/04/02 11:32:22;;;;;;;33.97;23.97;;;12.30;99.90;;;;;;4978555;28;20172;-79
2021/04/02 11:34:48;;;;;;;43.60;23.57;;;12.00;99.90;;;;;;4979618;28;20235;-79
2021/04/02 11:37:13;;;;;;;33.10;23.33;;;11.80;99.90;;;;;;4979468;28;20209;-78
2021/04/02 11:39:39;;;;;;;40.70;24.00;;;11.80;99.90;;;;;;4978062;28;20538;-77
2021/04/02 11:42:06;;;;;;;41.03;25.03;;;11.80;99.90;;;;;;4977886;28;20199;-78
2021/04/02 11:44:31;;;;;;;43.93;25.27;;;11.80;99.90;;;;;;4977676;28;20188;-78
2021/04/02 11:46:57;;;;;;;36.60;25.03;;;11.80;99.90;;;;;;4979628;28;20192;-79
2021/04/02 11:49:23;;;;;;;44.57;25.10;;;11.50;99.90;;;;;;4977214;28;20657;-78
2021/04/02 11:51:48;;;;;;;39.23;25.03;;;11.50;99.90;;;;;;4978324;28;20207;-78
2021/04/02 11:54:15;;;;;;;42.70;25.37;;;11.60;99.90;;;;;;4975717;28;20212;-77
2021/04/02 11:56:41;;;;;;;42.47;24.90;;;11.60;99.90;;;;;;4976841;28;20290;-78
2021/04/02 11:59:07;;;;;;;42.63;26.50;;;11.70;99.90;;;;;;4975688;28;20229;-78
2021/04/02 12:01:32;;;;;;;42.30;26.27;;;11.60;99.90;;;;;;4980322;28;20205;-78
2021/04/02 12:03:58;;;;;;;43.73;27.37;;;11.40;99.90;;;;;;4977934;28;20180;-79
2021/04/02 12:06:24;;;;;;;40.67;23.90;;;11.40;99.90;;;;;;4978669;28;20258;-78
2021/04/02 12:08:49;;;;;;;43.30;24.77;;;11.10;99.90;;;;;;4977909;28;20561;-78
2021/04/02 12:11:15;;;;;;;35.90;23.90;;;11.10;99.90;;;;;;4978566;28;20176;-78
2021/04/02 12:13:41;;;;;;;41.33;25.43;;;11.10;99.90;;;;;;4977634;28;20172;-77
2021/04/02 12:16:07;;;;;;;39.67;24.77;;;10.90;99.90;;;;;;4980096;28;20208;-79
2021/04/02 12:18:33;;;;;;;41.93;25.03;;;10.80;99.90;;;;;;4980553;28;20172;-77
2021/04/02 12:20:59;;;;;;;39.13;25.03;;;10.80;99.90;;;;;;4980570;28;20177;-78
2021/04/02 12:23:24;;;;;;;39.93;26.07;;;10.90;99.90;;;;;;4982567;28;20172;-78
2021/04/02 12:25:50;;;;;;;44.90;26.33;;;10.80;99.90;;;;;;4982248;28;20278;-78
2021/04/02 12:28:16;;;;;;;44.17;27.83;;;10.70;99.90;;;;;;4980637;28;20207;-77
2021/04/02 12:30:42;;;;;;;48.73;26.43;;;10.70;99.90;;;;;;4976890;28;20187;-77
2021/04/02 12:33:08;;;;;;;41.73;26.50;;;10.60;99.90;;;;;;4979369;28;20187;-77
2021/04/02 12:35:34;;;;;;;43.57;27.07;;;10.70;99.90;;;;;;4976484;28;20204;-79
2021/04/02 12:37:59;;;;;;;42.23;27.13;;;10.80;99.90;;;;;;4977648;28;20287;-77
2021/04/02 12:40:26;;;;;;;42.40;29.57;;;10.70;99.90;;;;;;4976487;28;20184;-77